createdAt,value
2023-04-04T00:01:05.444Z,91.40
2023-04-04T00:03:33.446Z,91.30
2023-04-04T00:06:02.934Z,91.40
2023-04-04T00:08:30.839Z,91.30
2023-04-04T00:10:59.528Z,91.50
2023-04-04T00:13:27.793Z,91.30
2023-04-04T00:15:55.910Z,91.40
2023-04-04T00:18:23.813Z,91.30
2023-04-04T00:20:51.749Z,91.30
2023-04-04T00:23:21.071Z,91.20
2023-04-04T00:25:51.969Z,91.30
2023-04-04T00:28:20.546Z,91.50
2023-04-04T00:30:48.689Z,91.60
2023-04-04T00:33:16.701Z,91.60
2023-04-04T00:35:44.624Z,91.80
2023-04-04T00:38:12.750Z,91.70
2023-04-04T00:40:44.108Z,91.80
2023-04-04T00:43:12.275Z,91.70
2023-04-04T00:45:40.297Z,91.60
2023-04-04T00:48:08.223Z,91.80
2023-04-04T00:50:36.248Z,91.80
2023-04-04T00:53:04.144Z,91.80
2023-04-04T00:55:32.554Z,91.90
2023-04-04T00:58:02.106Z,92.00
2023-04-04T01:00:30.352Z,91.90
2023-04-04T01:02:58.446Z,92.00
2023-04-04T01:05:26.497Z,91.90
2023-04-04T01:07:54.458Z,92.10
2023-04-04T01:10:22.343Z,92.10
2023-04-04T01:12:50.660Z,91.90
2023-04-04T01:15:19.903Z,92.40
2023-04-04T01:17:48.817Z,92.10
2023-04-04T01:20:20.627Z,92.20
2023-04-04T01:22:51.256Z,92.30
2023-04-04T01:25:19.989Z,92.30
2023-04-04T01:27:49.641Z,92.50
2023-04-04T01:30:18.591Z,92.50
2023-04-04T01:32:48.998Z,92.30
2023-04-04T01:35:26.314Z,92.50
2023-04-04T01:37:59.445Z,93.00
2023-04-04T01:40:35.004Z,92.70
2023-04-04T01:43:04.854Z,92.80
2023-04-04T01:45:33.163Z,92.80
2023-04-04T01:48:01.411Z,93.00
2023-04-04T01:50:29.495Z,93.20
2023-04-04T01:52:57.453Z,93.30
2023-04-04T01:55:26.046Z,93.30
2023-04-04T01:57:53.865Z,93.30
2023-04-04T02:00:23.110Z,93.30
2023-04-04T02:02:51.409Z,93.50
2023-04-04T02:05:19.393Z,93.30
2023-04-04T02:07:50.525Z,93.40
2023-04-04T02:10:18.767Z,93.70
2023-04-04T02:12:46.863Z,93.70
2023-04-04T02:15:14.751Z,93.90
2023-04-04T02:17:48.563Z,94.00
2023-04-04T02:20:19.418Z,93.80
2023-04-04T02:22:53.848Z,93.90
2023-04-04T02:25:22.174Z,94.10
2023-04-04T02:27:50.055Z,94.20
2023-04-04T02:30:19.506Z,94.50
2023-04-04T02:32:50.281Z,94.40
2023-04-04T02:35:18.388Z,94.40
2023-04-04T02:37:47.954Z,94.60
2023-04-04T02:40:16.272Z,94.90
2023-04-04T02:42:44.903Z,95.10
2023-04-04T02:45:14.488Z,95.20
2023-04-04T02:47:43.363Z,95.00
2023-04-04T02:50:13.060Z,95.40
2023-04-04T02:52:41.022Z,95.60
2023-04-04T02:55:10.453Z,95.50
2023-04-04T02:57:38.710Z,95.60
2023-04-04T03:00:07.859Z,95.80
2023-04-04T03:02:35.814Z,95.80
2023-04-04T03:05:04.001Z,95.90
2023-04-04T03:07:33.372Z,96.00
2023-04-04T03:10:01.502Z,95.90
2023-04-04T03:12:29.392Z,96.30
2023-04-04T03:14:57.477Z,96.40
2023-04-04T03:17:26.810Z,96.70
2023-04-04T03:19:54.778Z,96.80
2023-04-04T03:22:22.788Z,96.80
2023-04-04T03:24:52.174Z,96.90
2023-04-04T03:27:20.147Z,96.70
2023-04-04T03:29:47.987Z,96.70
2023-04-04T03:32:15.909Z,96.60
2023-04-04T03:34:44.685Z,96.90
2023-04-04T03:37:12.546Z,96.90
2023-04-04T03:39:40.741Z,96.70
2023-04-04T03:42:10.030Z,97.10
2023-04-04T03:44:41.017Z,97.10
2023-04-04T03:47:08.955Z,97.40
2023-04-04T03:49:36.908Z,97.40
2023-04-04T03:52:05.147Z,97.40
2023-04-04T03:54:33.140Z,97.50
2023-04-04T03:57:01.317Z,96.70
2023-04-04T03:59:30.753Z,96.90
2023-04-04T04:01:58.837Z,97.10
2023-04-04T04:04:26.758Z,99.90
2023-04-04T04:06:54.839Z,99.90
2023-04-04T04:09:22.786Z,99.90
2023-04-04T04:11:50.696Z,99.90
2023-04-04T04:14:18.878Z,99.90
2023-04-04T04:16:48.137Z,99.90
2023-04-04T04:19:16.201Z,99.90
2023-04-04T04:21:44.752Z,99.90
2023-04-04T04:24:12.648Z,99.90
2023-04-04T04:26:40.614Z,99.90
2023-04-04T04:29:08.562Z,99.90
2023-04-04T04:31:36.527Z,99.90
2023-04-04T04:34:08.633Z,99.90
2023-04-04T04:36:36.879Z,99.90
2023-04-04T04:39:04.918Z,99.90
2023-04-04T04:41:32.820Z,99.90
2023-04-04T04:44:00.646Z,99.90
2023-04-04T04:46:28.624Z,99.90
2023-04-04T04:48:56.649Z,99.90
2023-04-04T04:51:26.197Z,99.90
2023-04-04T04:53:54.284Z,99.90
2023-04-04T04:56:24.215Z,99.90
2023-04-04T04:58:52.237Z,99.90
2023-04-04T05:01:22.560Z,99.90
2023-04-04T05:03:52.151Z,99.90
2023-04-04T05:06:21.507Z,99.90
2023-04-04T05:08:50.838Z,99.90
2023-04-04T05:11:18.870Z,99.90
2023-04-04T05:13:47.018Z,99.90
2023-04-04T05:16:15.030Z,99.90
2023-04-04T05:18:43.007Z,99.90
2023-04-04T05:21:11.131Z,99.90
2023-04-04T05:23:39.293Z,99.90
2023-04-04T05:26:08.447Z,99.90
2023-04-04T05:28:36.315Z,99.90
2023-04-04T05:31:04.308Z,99.90
2023-04-04T05:33:32.256Z,99.90
2023-04-04T05:36:01.174Z,99.90
2023-04-04T05:38:29.573Z,99.90
2023-04-04T05:40:57.554Z,99.90
2023-04-04T05:43:27.137Z,99.90
2023-04-04T05:45:54.998Z,99.90
2023-04-04T05:48:22.852Z,99.90
2023-04-04T05:50:51.023Z,99.90
2023-04-04T05:53:18.970Z,99.90
2023-04-04T05:55:46.871Z,99.90
2023-04-04T05:58:14.776Z,99.90
2023-04-04T06:00:44.084Z,99.90
2023-04-04T06:03:12.869Z,99.90
2023-04-04T06:05:40.957Z,99.90
2023-04-04T06:08:08.809Z,99.90
2023-04-04T06:10:36.712Z,99.90
2023-04-04T06:13:04.582Z,99.90
2023-04-04T06:15:32.581Z,99.90
2023-04-04T06:18:01.882Z,99.90
2023-04-04T06:20:29.835Z,99.90
2023-04-04T06:22:57.746Z,99.80
2023-04-04T06:25:27.083Z,99.90
2023-04-04T06:27:54.958Z,99.90
2023-04-04T06:30:23.075Z,99.90
2023-04-04T06:32:50.996Z,99.70
2023-04-04T06:35:20.626Z,99.40
2023-04-04T06:37:48.908Z,99.10
2023-04-04T06:40:17.185Z,99.20
2023-04-04T06:42:50.466Z,98.80
2023-04-04T06:45:18.622Z,98.90
2023-04-04T06:47:47.161Z,98.50
2023-04-04T06:50:15.620Z,98.20
2023-04-04T06:52:45.038Z,98.40
2023-04-04T06:55:13.103Z,97.70
2023-04-04T06:57:41.274Z,97.70
2023-04-04T07:00:10.273Z,97.40
2023-04-04T07:02:38.494Z,97.20
2023-04-04T07:05:07.499Z,96.60
2023-04-04T07:07:35.493Z,96.70
2023-04-04T07:10:05.285Z,96.40
2023-04-04T07:12:33.242Z,96.00
2023-04-04T07:15:01.262Z,95.80
2023-04-04T07:17:29.230Z,95.90
2023-04-04T07:19:57.126Z,96.10
2023-04-04T07:22:25.046Z,95.10
2023-04-04T07:24:53.072Z,95.30
2023-04-04T07:27:22.370Z,94.90
2023-04-04T07:29:50.525Z,95.00
2023-04-04T07:32:18.431Z,94.80
2023-04-04T07:34:47.212Z,94.10
2023-04-04T07:37:15.287Z,93.90
2023-04-04T07:39:43.662Z,93.70
2023-04-04T07:42:11.815Z,94.30
2023-04-04T07:44:41.296Z,94.20
2023-04-04T07:47:10.900Z,93.20
2023-04-04T07:49:38.822Z,93.20
2023-04-04T07:52:07.229Z,92.50
2023-04-04T07:54:35.180Z,91.70
2023-04-04T07:57:05.420Z,91.50
2023-04-04T07:59:33.513Z,91.90
2023-04-04T08:02:02.848Z,91.50
2023-04-04T08:04:30.975Z,90.60
2023-04-04T08:06:58.948Z,90.40
2023-04-04T08:09:31.230Z,90.60
2023-04-04T08:11:59.197Z,90.10
2023-04-04T08:14:27.591Z,89.80
2023-04-04T08:16:55.547Z,90.00
2023-04-04T08:19:24.940Z,90.00
2023-04-04T08:21:52.921Z,90.00
2023-04-04T08:24:22.542Z,88.70
2023-04-04T08:27:01.826Z,87.80
2023-04-04T08:29:33.071Z,88.10
2023-04-04T08:32:01.560Z,86.40
2023-04-04T08:34:31.047Z,86.10
2023-04-04T08:36:59.917Z,86.70
2023-04-04T08:39:28.290Z,85.70
2023-04-04T08:42:02.612Z,87.90
2023-04-04T08:44:31.634Z,87.40
2023-04-04T08:47:01.229Z,91.00
2023-04-04T08:49:33.470Z,88.40
2023-04-04T08:52:03.790Z,86.10
2023-04-04T08:54:32.874Z,85.40
2023-04-04T08:57:01.809Z,83.30
2023-04-04T08:59:29.901Z,84.00
2023-04-04T09:02:05.511Z,84.70
2023-04-04T09:04:34.915Z,84.20
2023-04-04T09:07:05.178Z,82.50
2023-04-04T09:09:34.378Z,84.50
2023-04-04T09:12:03.446Z,84.00
2023-04-04T09:14:31.852Z,81.10
2023-04-04T09:16:59.995Z,82.20
2023-04-04T09:19:28.344Z,82.10
2023-04-04T09:21:57.966Z,81.10
2023-04-04T09:24:26.470Z,80.40
2023-04-04T09:26:55.030Z,80.70
2023-04-04T09:29:23.643Z,82.30
2023-04-04T09:31:52.204Z,80.30
2023-04-04T09:34:21.162Z,80.20
2023-04-04T09:36:49.233Z,81.70
2023-04-04T09:39:20.874Z,80.60
2023-04-04T09:41:49.347Z,81.70
2023-04-04T09:44:18.338Z,80.70
2023-04-04T09:46:46.350Z,79.40
2023-04-04T09:49:20.728Z,79.40
2023-04-04T09:51:50.047Z,78.70
2023-04-04T09:54:29.494Z,78.50
2023-04-04T09:56:58.364Z,79.50
2023-04-04T09:59:26.476Z,79.40
2023-04-04T10:01:56.415Z,79.20
2023-04-04T10:04:27.187Z,78.30
2023-04-04T10:06:55.755Z,78.80
2023-04-04T10:09:25.330Z,80.60
2023-04-04T10:12:09.452Z,83.60
2023-04-04T10:14:37.934Z,77.50
2023-04-04T10:17:10.471Z,77.80
2023-04-04T10:19:39.437Z,78.70
2023-04-04T10:22:07.651Z,80.90
2023-04-04T10:24:37.192Z,80.50
2023-04-04T10:27:05.026Z,78.20
2023-04-04T10:29:33.824Z,77.90
2023-04-04T10:32:06.865Z,78.60
2023-04-04T10:34:48.489Z,78.20
2023-04-04T10:37:20.577Z,78.70
2023-04-04T10:39:54.742Z,79.90
2023-04-04T10:42:23.677Z,78.50
2023-04-04T10:44:52.155Z,76.30
2023-04-04T10:47:23.191Z,78.30
2023-04-04T10:49:52.550Z,76.90
2023-04-04T10:52:22.747Z,76.00
2023-04-04T10:54:56.019Z,74.90
2023-04-04T10:57:25.103Z,75.50
2023-04-04T11:00:02.609Z,76.10
2023-04-04T11:02:48.476Z,74.90
2023-04-04T11:05:24.971Z,76.30
2023-04-04T11:08:08.271Z,75.50
2023-04-04T11:10:39.714Z,75.70
2023-04-04T11:13:13.817Z,74.50
2023-04-04T11:15:48.266Z,72.50
2023-04-04T11:18:30.674Z,69.60
2023-04-04T11:21:03.257Z,62.90
2023-04-04T11:24:00.451Z,57.60
2023-04-04T11:26:37.531Z,53.00
2023-04-04T11:29:08.297Z,54.80
2023-04-04T11:31:41.091Z,50.60
2023-04-04T11:34:10.240Z,48.30
2023-04-04T11:36:56.038Z,47.20
2023-04-04T11:39:27.202Z,48.80
2023-04-04T11:41:58.718Z,48.50
2023-04-04T11:44:30.645Z,46.40
2023-04-04T11:47:04.109Z,45.20
2023-04-04T11:49:35.368Z,43.60
2023-04-04T11:52:06.742Z,42.60
2023-04-04T11:54:35.220Z,42.70
2023-04-04T11:57:06.772Z,41.90
2023-04-04T11:59:34.922Z,41.30
2023-04-04T12:02:03.301Z,42.40
2023-04-04T12:04:31.390Z,42.50
2023-04-04T12:07:00.295Z,41.10
2023-04-04T12:09:28.380Z,40.80
2023-04-04T12:11:58.030Z,40.40
2023-04-04T12:14:28.116Z,41.00
2023-04-04T12:16:57.554Z,40.70
2023-04-04T12:19:25.954Z,40.10
2023-04-04T12:21:55.015Z,40.60
2023-04-04T12:24:23.041Z,42.30
2023-04-04T12:26:53.356Z,41.90
2023-04-04T12:29:23.734Z,41.90
2023-04-04T12:31:54.563Z,42.10
2023-04-04T12:34:24.362Z,43.70
2023-04-04T12:36:54.091Z,43.60
2023-04-04T12:39:23.608Z,43.20
2023-04-04T12:41:54.633Z,42.50
2023-04-04T12:44:31.190Z,42.10
2023-04-04T12:47:02.271Z,41.10
2023-04-04T12:49:31.480Z,41.70
2023-04-04T12:52:03.780Z,42.30
2023-04-04T12:54:33.204Z,41.60
2023-04-04T12:57:04.502Z,41.40
2023-04-04T12:59:34.469Z,39.30
2023-04-04T13:02:05.295Z,41.70
2023-04-04T13:04:33.582Z,41.00
2023-04-04T13:07:02.016Z,40.60
2023-04-04T13:09:30.117Z,40.40
2023-04-04T13:11:59.780Z,41.60
2023-04-04T13:14:29.648Z,39.60
2023-04-04T13:17:08.053Z,39.40
2023-04-04T13:19:36.290Z,40.30
2023-04-04T13:22:04.561Z,40.00
2023-04-04T13:24:32.476Z,39.20
2023-04-04T13:27:00.898Z,38.60
2023-04-04T13:29:28.798Z,39.20
2023-04-04T13:31:57.131Z,39.00
2023-04-04T13:34:27.807Z,40.20
2023-04-04T13:36:56.416Z,42.50
2023-04-04T13:39:24.327Z,46.10
2023-04-04T13:41:52.480Z,48.90
2023-04-04T13:44:20.467Z,49.80
2023-04-04T13:46:48.415Z,50.50
2023-04-04T13:49:16.517Z,52.70
2023-04-04T13:51:45.836Z,54.10
2023-04-04T13:54:20.631Z,55.10
2023-04-04T13:56:48.848Z,55.50
2023-04-04T13:59:20.629Z,57.70
2023-04-04T14:01:50.872Z,57.10
2023-04-04T14:04:24.117Z,59.60
2023-04-04T14:07:06.516Z,57.70
2023-04-04T14:09:37.702Z,58.50
2023-04-04T14:12:06.282Z,58.90
2023-04-04T14:14:35.740Z,58.80
2023-04-04T14:17:09.164Z,58.70
2023-04-04T14:19:42.235Z,57.20
2023-04-04T14:22:13.947Z,57.90
2023-04-04T14:24:46.189Z,57.90
2023-04-04T14:27:17.261Z,58.20
2023-04-04T14:29:50.091Z,58.20
2023-04-04T14:32:24.480Z,58.80
2023-04-04T14:35:00.222Z,58.90
2023-04-04T14:37:37.941Z,58.80
2023-04-04T14:40:07.804Z,59.80
2023-04-04T14:42:39.766Z,59.40
2023-04-04T14:45:16.804Z,58.40
2023-04-04T14:47:50.469Z,57.70
2023-04-04T14:50:30.082Z,58.20
2023-04-04T14:53:03.284Z,59.00
2023-04-04T14:55:37.888Z,59.30
2023-04-04T14:58:07.104Z,59.20
2023-04-04T15:00:42.475Z,59.00
2023-04-04T15:03:23.996Z,58.70
2023-04-04T15:06:12.559Z,59.10
2023-04-04T15:08:46.914Z,58.90
2023-04-04T15:11:16.714Z,59.30
2023-04-04T15:13:45.232Z,59.60
2023-04-04T15:16:13.459Z,59.30
2023-04-04T15:18:42.854Z,59.60
2023-04-04T15:21:11.597Z,59.60
2023-04-04T15:23:45.660Z,59.60
2023-04-04T15:26:18.806Z,60.00
2023-04-04T15:28:51.188Z,59.30
2023-04-04T15:31:38.537Z,59.60
2023-04-04T15:34:16.617Z,60.00
2023-04-04T15:36:49.360Z,60.90
2023-04-04T15:39:20.850Z,60.90
2023-04-04T15:41:56.860Z,59.90
2023-04-04T15:44:25.166Z,60.70
2023-04-04T15:47:00.102Z,59.30
2023-04-04T15:49:29.087Z,59.10
2023-04-04T15:52:04.652Z,58.80
2023-04-04T15:54:35.211Z,59.80
2023-04-04T15:57:03.480Z,60.70
2023-04-04T15:59:32.023Z,59.10
2023-04-04T16:02:00.643Z,59.00
2023-04-04T16:04:28.839Z,59.30
2023-04-04T16:07:02.404Z,59.10
2023-04-04T16:09:38.345Z,59.60
2023-04-04T16:12:08.814Z,60.00
2023-04-04T16:14:36.744Z,59.60
2023-04-04T16:17:04.652Z,59.80
2023-04-04T16:19:32.582Z,60.30
2023-04-04T16:22:00.551Z,61.10
2023-04-04T16:24:29.402Z,63.60
2023-04-04T16:26:58.765Z,60.30
2023-04-04T16:29:27.261Z,61.00
2023-04-04T16:31:56.019Z,62.90
2023-04-04T16:34:23.973Z,64.40
2023-04-04T16:36:51.909Z,62.50
2023-04-04T16:39:20.226Z,60.90
2023-04-04T16:41:48.122Z,61.00
2023-04-04T16:44:17.510Z,61.50
2023-04-04T16:46:47.181Z,62.40
2023-04-04T16:49:16.322Z,66.50
2023-04-04T16:51:44.290Z,61.60
2023-04-04T16:54:13.057Z,61.10
2023-04-04T16:56:41.913Z,60.80
2023-04-04T16:59:09.883Z,60.70
2023-04-04T17:01:39.986Z,61.80
2023-04-04T17:04:08.365Z,62.00
2023-04-04T17:06:36.265Z,65.20
2023-04-04T17:09:04.293Z,64.60
2023-04-04T17:11:32.222Z,62.30
2023-04-04T17:14:00.189Z,61.80
2023-04-04T17:16:28.404Z,62.10
2023-04-04T17:18:57.770Z,63.70
2023-04-04T17:21:26.237Z,63.30
2023-04-04T17:23:54.136Z,63.30
2023-04-04T17:26:22.271Z,63.10
2023-04-04T17:28:50.496Z,63.20
2023-04-04T17:31:18.588Z,63.90
2023-04-04T17:33:46.685Z,65.10
2023-04-04T17:36:16.270Z,64.40
2023-04-04T17:38:44.177Z,64.30
2023-04-04T17:41:12.213Z,64.00
2023-04-04T17:43:40.207Z,64.50
2023-04-04T17:46:09.347Z,66.30
2023-04-04T17:48:37.603Z,64.80
2023-04-04T17:51:08.301Z,65.60
2023-04-04T17:53:37.869Z,64.10
2023-04-04T17:56:06.150Z,63.90
2023-04-04T17:58:35.354Z,64.60
2023-04-04T18:01:04.153Z,65.80
2023-04-04T18:03:32.996Z,64.20
2023-04-04T18:06:01.275Z,66.20
2023-04-04T18:08:29.155Z,68.90
2023-04-04T18:10:59.877Z,71.60
2023-04-04T18:13:27.790Z,68.30
2023-04-04T18:15:55.739Z,70.60
2023-04-04T18:18:24.129Z,70.80
2023-04-04T18:20:52.705Z,72.30
2023-04-04T18:23:20.817Z,73.40
2023-04-04T18:25:48.667Z,71.60
2023-04-04T18:28:18.309Z,75.10
2023-04-04T18:30:46.261Z,73.60
2023-04-04T18:33:14.334Z,72.60
2023-04-04T18:35:42.301Z,74.50
2023-04-04T18:38:10.362Z,75.90
2023-04-04T18:40:38.713Z,76.30
2023-04-04T18:43:06.973Z,73.30
2023-04-04T18:45:40.397Z,74.90
2023-04-04T18:48:09.341Z,74.60
2023-04-04T18:50:37.431Z,76.60
2023-04-04T18:53:05.365Z,75.50
2023-04-04T18:55:33.293Z,76.70
2023-04-04T18:58:01.241Z,76.90
2023-04-04T19:00:29.124Z,76.20
2023-04-04T19:02:58.359Z,76.60
2023-04-04T19:05:26.730Z,76.60
2023-04-04T19:07:55.173Z,76.20
2023-04-04T19:10:23.599Z,78.10
2023-04-04T19:12:51.521Z,80.00
2023-04-04T19:15:19.591Z,82.00
2023-04-04T19:17:47.650Z,82.80
2023-04-04T19:20:17.043Z,83.80
2023-04-04T19:22:44.891Z,84.20
2023-04-04T19:25:12.716Z,82.70
2023-04-04T19:27:40.738Z,82.50
2023-04-04T19:30:34.372Z,83.00
2023-04-04T19:33:03.429Z,83.00
2023-04-04T19:35:53.070Z,84.00
2023-04-04T19:38:24.865Z,86.10
2023-04-04T19:40:55.794Z,86.20
2023-04-04T19:43:24.328Z,87.90
2023-04-04T19:45:53.498Z,88.40
2023-04-04T19:48:43.630Z,88.20
2023-04-04T19:51:51.201Z,87.30
2023-04-04T19:54:24.894Z,86.40
2023-04-04T19:57:02.709Z,86.40
2023-04-04T19:59:59.015Z,86.30
2023-04-04T20:02:52.007Z,87.30
2023-04-04T20:05:55.940Z,88.60
2023-04-04T20:08:25.793Z,86.80
2023-04-04T20:10:57.526Z,88.00
2023-04-04T20:13:25.569Z,87.10
2023-04-04T20:16:03.422Z,87.70
2023-04-04T20:18:32.927Z,88.80
2023-04-04T20:21:13.372Z,87.60
2023-04-04T20:23:49.322Z,89.80
2023-04-04T20:26:54.325Z,88.50
2023-04-04T20:29:25.430Z,89.00
2023-04-04T20:31:55.152Z,89.10
2023-04-04T20:34:33.376Z,90.30
2023-04-04T20:37:02.964Z,87.30
2023-04-04T20:39:45.521Z,86.60
2023-04-04T20:42:33.866Z,87.50
2023-04-04T20:45:13.709Z,85.70
2023-04-04T20:47:46.338Z,84.00
2023-04-04T20:50:45.134Z,83.60
2023-04-04T20:53:18.985Z,83.20
2023-04-04T20:55:48.345Z,83.70
2023-04-04T20:58:28.014Z,83.00
2023-04-04T21:00:57.807Z,83.90
2023-04-04T21:03:35.227Z,84.40
2023-04-04T21:06:10.294Z,84.60
2023-04-04T21:08:42.106Z,84.00
2023-04-04T21:11:12.158Z,85.20
2023-04-04T21:13:41.685Z,85.90
2023-04-04T21:16:11.886Z,86.10
2023-04-04T21:18:41.490Z,86.00
2023-04-04T21:21:11.888Z,84.40
2023-04-04T21:23:49.048Z,85.60
2023-04-04T21:26:31.749Z,84.80
2023-04-04T21:29:00.749Z,83.80
2023-04-04T21:31:35.042Z,83.50
2023-04-04T21:34:09.089Z,83.60
2023-04-04T21:36:37.017Z,83.30
2023-04-04T21:39:08.702Z,84.70
2023-04-04T21:41:38.156Z,84.30
2023-04-04T21:44:07.698Z,85.00
2023-04-04T21:46:37.104Z,83.60
2023-04-04T21:49:05.920Z,84.10
2023-04-04T21:51:34.345Z,85.50
2023-04-04T21:54:03.024Z,87.50
2023-04-04T21:56:32.310Z,87.00
2023-04-04T21:59:02.636Z,87.70
2023-04-04T22:01:31.534Z,85.70
2023-04-04T22:04:00.069Z,85.80
2023-04-04T22:06:28.892Z,85.10
2023-04-04T22:08:58.179Z,85.10
2023-04-04T22:11:27.214Z,85.30
2023-04-04T22:14:03.986Z,85.50
2023-04-04T22:16:36.893Z,85.70
2023-04-04T22:19:05.305Z,85.60
2023-04-04T22:21:36.566Z,84.90
2023-04-04T22:24:06.250Z,87.30
2023-04-04T22:26:34.569Z,86.80
2023-04-04T22:29:04.435Z,85.90
2023-04-04T22:31:35.012Z,88.10
2023-04-04T22:34:03.977Z,86.20
2023-04-04T22:36:34.260Z,86.30
2023-04-04T22:39:02.807Z,85.10
2023-04-04T22:41:31.200Z,84.70
2023-04-04T22:43:59.108Z,85.90
2023-04-04T22:46:28.877Z,86.30
2023-04-04T22:49:06.390Z,86.80
2023-04-04T22:51:42.904Z,87.50
2023-04-04T22:54:12.928Z,88.00
2023-04-04T22:56:41.392Z,89.20
2023-04-04T22:59:09.334Z,90.10
2023-04-04T23:01:37.268Z,89.10
2023-04-04T23:04:06.776Z,90.10
2023-04-04T23:06:35.830Z,89.60
2023-04-04T23:09:04.092Z,90.00
2023-04-04T23:11:32.160Z,89.40
2023-04-04T23:14:00.352Z,89.60
2023-04-04T23:16:28.990Z,90.00
2023-04-04T23:18:57.052Z,90.40
2023-04-04T23:21:28.780Z,90.30
2023-04-04T23:23:57.596Z,90.70
2023-04-04T23:26:25.475Z,90.50
2023-04-04T23:28:53.825Z,90.50
2023-04-04T23:31:21.841Z,90.80
2023-04-04T23:33:49.971Z,90.70
2023-04-04T23:36:17.968Z,90.80
2023-04-04T23:38:47.857Z,90.90
2023-04-04T23:41:16.159Z,91.90
2023-04-04T23:43:44.102Z,92.70
2023-04-04T23:46:14.425Z,92.40
2023-04-04T23:48:42.798Z,93.00
2023-04-04T23:51:10.888Z,92.80
2023-04-04T23:53:39.028Z,93.30
2023-04-04T23:56:08.974Z,93.80
2023-04-04T23:58:39.166Z,94.30
